Time;durP1;ratioP1;P1;durP2;ratioP2;P2;SDS_P1;SDS_P2;PMS_P1;PMS_P2;Temp;Humidity;BMP_temperature;BMP_pressure;BME280_temperature;BME280_humidity;BME280_pressure;Samples;Min_cycle;Max_cycle;Signal;HPM_P1;HPM_P2
2022/03/26 00:01:04;;;;;;;17.83;9.70;;;10.90;53.90;;;11.41;nan;101820.16;5010928;28;20641;-66
2022/03/26 00:03:31;;;;;;;19.17;10.00;;;10.90;54.00;;;11.39;nan;101825.44;4992250;28;20634;-67
2022/03/26 00:05:59;;;;;;;16.60;9.90;;;10.90;53.80;;;11.39;nan;101829.84;4989692;28;21055;-67
2022/03/26 00:08:26;;;;;;;19.13;8.43;;;10.90;53.90;;;11.42;nan;101827.91;5009940;28;20673;-67
2022/03/26 00:10:53;;;;;;;24.10;9.93;;;10.90;54.10;;;11.38;nan;101828.16;4993636;28;20656;-67
2022/03/26 00:13:20;;;;;;;17.60;8.33;;;10.90;54.00;;;11.35;nan;101833.56;5012009;28;20628;-67
2022/03/26 00:15:47;;;;;;;21.70;10.63;;;10.80;54.30;;;11.29;nan;101836.50;5011083;28;21055;-67
2022/03/26 00:18:17;;;;;;;16.97;8.67;;;10.80;54.60;;;11.27;nan;101839.22;5010844;28;20629;-67
2022/03/26 00:20:45;;;;;;;21.50;8.63;;;10.80;54.70;;;11.27;nan;101841.81;5010934;28;20637;-67
2022/03/26 00:23:12;;;;;;;27.03;8.47;;;10.70;54.90;;;11.19;nan;101835.34;5010334;28;20644;-67
2022/03/26 00:25:39;;;;;;;15.17;8.40;;;10.70;55.20;;;11.18;nan;101842.31;5010656;28;20638;-67
2022/03/26 00:28:06;;;;;;;20.60;8.20;;;10.70;55.40;;;11.15;nan;101833.81;5009641;28;20734;-66
2022/03/26 00:30:34;;;;;;;23.30;10.20;;;10.60;55.40;;;11.14;nan;101840.00;5009928;28;20612;-66
2022/03/26 00:33:01;;;;;;;19.37;9.23;;;10.60;55.60;;;11.09;nan;101837.63;5009278;28;20633;-67
2022/03/26 00:35:28;;;;;;;18.80;9.43;;;10.60;55.70;;;11.14;nan;101840.00;4996608;28;20613;-67
2022/03/26 00:37:56;;;;;;;19.33;9.10;;;10.60;55.70;;;11.13;nan;101849.59;5012366;28;20641;-67
2022/03/26 00:40:23;;;;;;;17.40;8.60;;;10.60;55.90;;;11.09;nan;101839.41;5014391;28;20645;-67
2022/03/26 00:42:50;;;;;;;15.77;8.43;;;10.60;55.90;;;11.08;nan;101842.91;4991748;28;20630;-66
2022/03/26 00:45:17;;;;;;;18.30;9.53;;;10.60;55.80;;;11.08;nan;101845.53;5005069;28;21196;-66
2022/03/26 00:47:44;;;;;;;17.17;8.57;;;10.60;55.80;;;11.09;nan;101845.47;4996555;28;20894;-67
2022/03/26 00:50:11;;;;;;;23.67;9.70;;;10.60;55.80;;;11.08;nan;101840.31;5015232;28;20741;-67
2022/03/26 00:52:38;;;;;;;19.67;9.13;;;10.60;55.70;;;10.99;nan;101843.44;5013629;28;21239;-67
2022/03/26 00:55:06;;;;;;;22.00;9.10;;;10.50;55.70;;;10.97;nan;101845.28;5014977;28;20614;-67
2022/03/26 00:57:33;;;;;;;20.50;8.30;;;10.50;55.90;;;10.91;nan;101841.22;4996550;28;20612;-66
2022/03/26 01:00:00;;;;;;;16.83;8.57;;;10.40;56.00;;;10.88;nan;101841.41;4995480;28;21144;-67
2022/03/26 01:02:27;;;;;;;15.27;7.80;;;10.40;56.10;;;10.88;nan;101839.63;5014109;28;20633;-67
2022/03/26 01:04:54;;;;;;;18.77;9.00;;;10.40;56.20;;;10.86;nan;101835.44;5013975;28;20621;-67
2022/03/26 01:07:21;;;;;;;18.73;8.07;;;10.40;56.20;;;10.71;nan;101834.47;5012635;28;20665;-66
2022/03/26 01:09:48;;;;;;;16.10;7.40;;;10.20;56.40;;;10.73;nan;101835.22;5012591;28;21268;-66
2022/03/26 01:12:15;;;;;;;17.23;7.27;;;10.20;56.60;;;10.70;nan;101832.78;5013010;28;20997;-64
2022/03/26 01:14:42;;;;;;;16.23;6.90;;;10.20;56.80;;;10.66;nan;101830.44;5014720;28;20613;-67
2022/03/26 01:17:09;;;;;;;12.70;5.67;;;10.10;56.90;;;10.61;nan;101833.28;5014190;28;20621;-67
2022/03/26 01:19:36;;;;;;;13.17;6.73;;;10.10;57.20;;;10.56;nan;101824.03;5014230;28;21063;-67
2022/03/26 01:22:04;;;;;;;12.03;6.73;;;10.00;57.20;;;10.54;nan;101826.69;5013207;28;20647;-68
2022/03/26 01:24:31;;;;;;;19.97;7.40;;;10.10;57.20;;;10.41;nan;101819.59;4995971;28;20617;-67
2022/03/26 01:26:58;;;;;;;18.23;8.27;;;10.00;57.50;;;10.40;nan;101820.50;4995545;28;20647;-66
2022/03/26 01:29:25;;;;;;;15.97;7.67;;;10.00;57.70;;;10.41;nan;101822.22;5012698;28;20648;-67
2022/03/26 01:31:53;;;;;;;21.90;9.63;;;9.90;57.50;;;10.38;nan;101823.22;4996986;28;20659;-66
2022/03/26 01:34:22;;;;;;;22.20;8.50;;;9.90;57.70;;;10.35;nan;101818.13;5013581;28;21287;-67
2022/03/26 01:36:49;;;;;;;21.37;8.87;;;9.90;57.90;;;10.37;nan;101818.91;5014547;28;20676;-67
2022/03/26 01:39:18;;;;;;;23.40;8.10;;;9.90;57.80;;;10.27;nan;101820.31;5012573;28;20669;-67
2022/03/26 01:41:45;;;;;;;19.60;8.73;;;9.80;58.10;;;10.30;nan;101819.31;5010374;28;20640;-66
2022/03/26 01:44:16;;;;;;;18.80;9.00;;;9.80;58.10;;;10.18;nan;101820.78;5013296;28;20642;-64
2022/03/26 01:46:51;;;;;;;18.70;8.63;;;9.70;58.50;;;10.17;nan;101824.31;5011446;28;20624;-67
2022/03/26 01:49:18;;;;;;;12.37;6.00;;;9.70;58.70;;;10.05;nan;101822.31;5013472;28;20872;-67
2022/03/26 01:51:46;;;;;;;20.73;8.80;;;9.60;59.10;;;10.02;nan;101822.47;5013796;28;20617;-66
2022/03/26 01:54:15;;;;;;;15.87;7.93;;;9.50;59.10;;;10.00;nan;101825.16;4995246;28;20692;-64
2022/03/26 01:56:42;;;;;;;19.00;9.07;;;9.50;59.50;;;9.94;nan;101825.47;4994831;28;21019;-67
2022/03/26 01:59:11;;;;;;;20.17;9.10;;;9.50;59.50;;;9.92;nan;101826.47;5013472;28;20661;-66
2022/03/26 02:01:38;;;;;;;18.23;8.90;;;9.40;59.60;;;9.93;nan;101823.78;5010960;28;21103;-66
2022/03/26 02:04:08;;;;;;;27.20;10.00;;;9.50;59.70;;;9.84;nan;101821.63;5003554;28;20639;-68
2022/03/26 02:06:38;;;;;;;23.20;10.30;;;9.40;59.90;;;9.91;nan;101832.59;5002763;28;20653;-67
2022/03/26 02:09:12;;;;;;;22.53;10.13;;;9.50;60.00;;;9.87;nan;101831.91;5013017;28;20672;-64
2022/03/26 02:11:45;;;;;;;21.90;10.70;;;9.50;60.10;;;9.88;nan;101828.38;5014321;28;20613;-69
2022/03/26 02:14:13;;;;;;;19.80;9.23;;;9.50;60.40;;;9.77;nan;101833.28;5013476;28;20640;-67
2022/03/26 02:16:43;;;;;;;18.13;9.10;;;9.30;60.40;;;9.84;nan;101828.59;5012960;28;20633;-66
2022/03/26 02:19:11;;;;;;;21.73;10.70;;;9.40;60.70;;;9.88;nan;101832.75;5012769;28;21021;-69
2022/03/26 02:21:38;;;;;;;21.97;9.50;;;9.40;60.60;;;9.87;nan;101834.50;5013734;28;20620;-66
2022/03/26 02:24:06;;;;;;;22.07;10.83;;;9.40;60.50;;;9.75;nan;101836.88;5012935;28;20672;-66
2022/03/26 02:26:34;;;;;;;22.60;10.47;;;9.30;60.90;;;9.70;nan;101828.44;5013015;28;20634;-69
2022/03/26 02:29:08;;;;;;;20.13;9.93;;;9.20;61.20;;;9.69;nan;101831.97;4993361;28;21245;-67
2022/03/26 02:31:36;;;;;;;23.53;9.70;;;9.30;61.20;;;9.65;nan;101825.22;5004179;28;20633;-70
2022/03/26 02:34:06;;;;;;;20.30;9.50;;;9.20;61.30;;;9.62;nan;101823.63;5012256;28;21178;-69
2022/03/26 02:36:33;;;;;;;19.73;9.70;;;9.20;61.50;;;9.59;nan;101822.91;4995694;28;20839;-69
2022/03/26 02:39:00;;;;;;;21.57;9.17;;;9.10;61.50;;;9.58;nan;101829.06;5011447;28;20669;-69
2022/03/26 02:41:27;;;;;;;21.60;10.20;;;9.10;61.50;;;9.58;nan;101827.28;5013047;28;20644;-69
2022/03/26 02:43:54;;;;;;;17.40;9.33;;;9.20;61.60;;;9.57;nan;101829.97;4978887;28;20614;-68
2022/03/26 02:46:21;;;;;;;21.57;9.77;;;9.10;61.80;;;9.60;nan;101829.81;5011559;28;20637;-68
2022/03/26 02:48:48;;;;;;;22.43;9.97;;;9.10;62.00;;;9.60;nan;101827.22;5012021;28;21109;-69
2022/03/26 02:51:15;;;;;;;20.80;9.03;;;9.20;62.70;;;9.55;nan;101824.84;5010792;28;20633;-68
2022/03/26 02:53:42;;;;;;;23.35;10.23;;;9.10;61.90;;;9.42;nan;101820.28;5012488;28;20735;-68
2022/03/26 02:56:09;;;;;;;25.77;10.47;;;9.00;62.30;;;9.52;nan;101818.94;5012393;28;20202;-68
2022/03/26 02:58:36;;;;;;;22.60;9.53;;;9.10;62.40;;;9.50;nan;101818.16;5011619;28;21006;-68
2022/03/26 03:01:03;;;;;;;17.97;8.10;;;9.10;62.40;;;9.42;nan;101813.31;5007973;28;21063;-68
2022/03/26 03:03:30;;;;;;;17.20;8.70;;;9.00;62.70;;;9.41;nan;101809.03;5012359;28;20625;-68
2022/03/26 03:05:58;;;;;;;21.37;9.57;;;9.00;62.90;;;9.43;nan;101816.78;5012200;28;20642;-68
2022/03/26 03:08:25;;;;;;;21.93;9.60;;;8.90;63.20;;;9.39;nan;101806.47;5012911;28;20665;-68
2022/03/26 03:10:52;;;;;;;20.70;9.40;;;8.90;63.10;;;9.46;nan;101808.78;5012320;28;20629;-68
2022/03/26 03:13:21;;;;;;;17.90;9.50;;;9.00;63.00;;;9.39;nan;101805.66;5011337;28;21002;-68
2022/03/26 03:15:52;;;;;;;24.47;10.57;;;8.90;63.10;;;9.43;nan;101806.34;4993308;28;20630;-69
2022/03/26 03:18:19;;;;;;;17.77;8.40;;;9.00;63.10;;;9.45;nan;101799.31;4994552;28;20625;-68
2022/03/26 03:20:46;;;;;;;22.33;10.30;;;9.00;63.20;;;9.35;nan;101804.09;5011592;28;20644;-68
2022/03/26 03:23:13;;;;;;;19.17;9.70;;;8.90;63.40;;;9.32;nan;101797.31;5011391;28;20645;-66
2022/03/26 03:25:40;;;;;;;15.97;8.20;;;8.90;63.70;;;9.27;nan;101806.22;5010816;28;21006;-69
2022/03/26 03:28:07;;;;;;;17.80;9.80;;;8.80;64.00;;;9.34;nan;101803.28;5010435;28;20650;-68
2022/03/26 03:30:35;;;;;;;19.60;10.10;;;8.90;64.10;;;9.28;nan;101802.72;4993013;28;20641;-68
2022/03/26 03:33:02;;;;;;;24.43;10.57;;;8.80;64.30;;;9.34;nan;101798.06;5009493;28;20622;-68
2022/03/26 03:35:29;;;;;;;28.90;10.27;;;8.90;64.50;;;9.25;nan;101801.09;4992860;28;20637;-68
2022/03/26 03:37:56;;;;;;;20.43;10.17;;;8.80;64.70;;;9.24;nan;101807.22;5010694;28;20633;-68
2022/03/26 03:40:23;;;;;;;25.13;10.27;;;8.80;65.20;;;9.24;nan;101803.78;4993109;28;20723;-68
2022/03/26 03:42:50;;;;;;;18.87;9.27;;;8.80;65.50;;;9.20;nan;101800.47;5012346;28;20636;-68
2022/03/26 03:45:17;;;;;;;22.30;10.17;;;8.80;65.60;;;9.16;nan;101798.94;5010381;28;20630;-68
2022/03/26 03:47:43;;;;;;;24.20;10.53;;;8.70;66.20;;;9.15;nan;101801.63;5010323;28;20634;-68
2022/03/26 03:50:11;;;;;;;20.27;10.37;;;8.70;66.40;;;9.14;nan;101799.91;5009876;28;21245;-69
2022/03/26 03:52:38;;;;;;;21.37;9.33;;;8.70;66.40;;;9.15;nan;101799.03;5010235;28;21178;-68
2022/03/26 03:55:06;;;;;;;22.40;10.10;;;8.70;66.30;;;9.15;nan;101802.47;5009696;28;20637;-68
2022/03/26 03:57:33;;;;;;;22.60;10.10;;;8.70;66.30;;;9.10;nan;101804.44;5010925;28;20636;-68
2022/03/26 04:00:01;;;;;;;19.20;10.30;;;8.70;66.50;;;9.06;nan;101802.03;5002970;28;20226;-67
2022/03/26 04:02:29;;;;;;;20.40;9.60;;;8.70;66.80;;;9.00;nan;101808.41;5011240;28;20629;-68
2022/03/26 04:04:56;;;;;;;22.37;10.27;;;8.60;67.30;;;9.03;nan;101810.03;5009578;28;20633;-68
2022/03/26 04:07:23;;;;;;;14.93;7.87;;;8.60;67.80;;;8.90;nan;101812.31;4992073;28;20633;-69
2022/03/26 04:09:50;;;;;;;22.57;10.90;;;8.50;68.40;;;9.01;nan;101819.63;5009576;28;20665;-68
2022/03/26 04:12:17;;;;;;;22.37;10.33;;;8.60;68.80;;;8.93;nan;101809.59;5011065;28;21204;-67
2022/03/26 04:14:44;;;;;;;24.80;9.83;;;8.50;68.70;;;9.02;nan;101821.34;5010864;28;20609;-68
2022/03/26 04:17:12;;;;;;;21.53;10.57;;;8.60;69.00;;;8.91;nan;101821.84;5009521;28;20629;-67
2022/03/26 04:19:42;;;;;;;21.63;10.90;;;8.50;69.40;;;8.84;nan;101817.81;4993416;28;20884;-68
2022/03/26 04:22:09;;;;;;;18.17;9.90;;;8.40;70.10;;;8.82;nan;101831.81;5009764;28;20660;-66
2022/03/26 04:24:36;;;;;;;20.10;10.60;;;8.40;70.60;;;8.82;nan;101830.06;5011168;28;20633;-68
2022/03/26 04:27:04;;;;;;;22.83;10.03;;;8.40;71.20;;;8.77;nan;101824.25;5011069;28;20669;-69
2022/03/26 04:29:31;;;;;;;27.37;11.10;;;8.40;71.30;;;8.69;nan;101821.13;4991680;28;20681;-68
2022/03/26 04:31:58;;;;;;;23.20;10.40;;;8.30;71.60;;;8.85;nan;101821.28;4990548;28;21007;-68
2022/03/26 04:34:26;;;;;;;22.63;10.45;;;8.40;71.60;;;8.74;nan;101829.56;4992422;28;20210;-68
2022/03/26 04:36:53;;;;;;;20.70;10.10;;;8.40;71.70;;;8.71;nan;101828.88;5011507;28;20206;-68
2022/03/26 04:39:20;;;;;;;20.43;10.80;;;8.30;72.00;;;8.69;nan;101835.91;5010912;28;20665;-68
2022/03/26 04:41:47;;;;;;;18.37;9.50;;;8.30;72.40;;;8.65;nan;101832.56;5011335;28;20630;-68
2022/03/26 04:44:15;;;;;;;21.02;10.55;;;8.30;72.80;;;8.68;nan;101831.59;4993278;28;20633;-67
2022/03/26 04:46:42;;;;;;;22.65;9.70;;;8.30;73.00;;;8.66;nan;101836.03;5010785;28;20260;-66
2022/03/26 04:49:09;;;;;;;21.83;10.00;;;8.30;73.00;;;8.60;nan;101832.78;5009138;28;20235;-68
2022/03/26 04:51:36;;;;;;;22.13;9.90;;;8.20;73.20;;;8.57;nan;101830.34;4993085;28;20629;-68
2022/03/26 04:54:04;;;;;;;23.05;10.23;;;8.20;73.70;;;8.56;nan;101830.41;4975397;28;21206;-68
2022/03/26 04:56:33;;;;;;;23.23;11.23;;;8.20;73.70;;;8.50;nan;101834.13;5007839;28;20202;-68
2022/03/26 04:59:00;;;;;;;23.00;10.50;;;8.20;74.20;;;8.37;nan;101837.31;5002068;23;20238;-71
2022/03/26 05:01:27;;;;;;;20.65;10.05;;;8.10;74.80;;;8.32;nan;101845.34;4975488;28;20196;-72
2022/03/26 05:03:54;;;;;;;24.10;10.50;;;8.00;75.50;;;8.33;nan;101843.56;4979582;28;20279;-72
2022/03/26 05:06:21;;;;;;;20.67;7.75;;;8.00;75.80;;;8.34;nan;101842.66;4988899;28;20668;-72
2022/03/26 05:08:48;;;;;;;19.90;9.77;;;8.00;76.10;;;8.29;nan;101844.59;4989884;28;20226;-72
2022/03/26 05:11:16;;;;;;;17.90;9.45;;;7.90;76.70;;;8.23;nan;101850.91;4990932;28;20314;-73
2022/03/26 05:13:43;;;;;;;23.00;10.75;;;8.00;77.40;;;8.22;nan;101846.59;4990601;28;20237;-70
2022/03/26 05:16:10;;;;;;;24.85;10.52;;;7.90;78.00;;;8.28;nan;101854.19;4989623;28;20212;-73
2022/03/26 05:18:37;;;;;;;20.60;10.50;;;7.90;78.00;;;8.27;nan;101852.47;5004416;28;20672;-73
2022/03/26 05:21:07;;;;;;;19.00;10.82;;;8.00;78.30;;;8.20;nan;101853.63;4990068;28;20734;-70
2022/03/26 05:23:35;;;;;;;24.33;11.77;;;7.90;78.70;;;8.10;nan;101859.25;4994930;28;20211;-71
2022/03/26 05:26:03;;;;;;;23.52;10.90;;;7.80;79.60;;;8.06;nan;101852.50;4992901;28;20214;-73
2022/03/26 05:28:31;;;;;;;21.33;11.38;;;7.70;80.30;;;8.08;nan;101850.69;4991048;28;20227;-73
2022/03/26 05:30:58;;;;;;;23.60;9.88;;;7.80;80.70;;;8.07;nan;101860.22;4993218;28;20208;-73
2022/03/26 05:33:25;;;;;;;24.80;9.60;;;7.70;81.20;;;8.14;nan;101853.03;4991248;28;20731;-73
2022/03/26 05:35:52;;;;;;;21.17;9.95;;;7.80;81.60;;;8.14;nan;101860.81;4992258;28;20214;-71
2022/03/26 05:38:19;;;;;;;22.20;11.48;;;7.90;81.50;;;8.13;nan;101859.16;4993155;28;20739;-73
2022/03/26 05:40:46;;;;;;;21.25;9.82;;;7.90;81.60;;;8.14;nan;101866.88;4994225;28;20238;-71
2022/03/26 05:43:13;;;;;;;15.63;9.35;;;8.00;81.60;;;8.26;nan;101865.56;4994400;28;20202;-71
2022/03/26 05:45:40;;;;;;;21.50;9.90;;;8.10;81.60;;;8.44;nan;101870.81;4992848;28;20668;-71
2022/03/26 05:48:08;;;;;;;23.38;10.23;;;8.40;80.60;;;8.69;nan;101869.72;4992736;28;20202;-71
2022/03/26 05:50:35;;;;;;;19.75;10.43;;;8.70;79.10;;;8.68;nan;101866.28;4991894;28;20484;-71
2022/03/26 05:53:03;;;;;;;27.93;11.20;;;8.80;78.50;;;8.98;nan;101882.28;4991254;28;20207;-71
2022/03/26 05:55:30;;;;;;;22.77;10.20;;;9.00;77.60;;;9.28;nan;101883.47;4992363;28;20646;-71
2022/03/26 05:57:57;;;;;;;19.15;10.05;;;9.30;75.70;;;9.44;nan;101892.22;4990997;28;20226;-72
2022/03/26 06:00:24;;;;;;;20.00;11.40;;;9.60;74.60;;;9.64;nan;101893.91;4991428;28;20235;-71
2022/03/26 06:02:51;;;;;;;21.00;9.50;;;9.70;73.50;;;9.95;nan;101894.94;4993926;28;20211;-74
2022/03/26 06:05:19;;;;;;;18.77;9.00;;;10.00;72.60;;;10.35;nan;101899.03;4992055;28;20622;-73
2022/03/26 06:07:46;;;;;;;23.83;11.80;;;10.50;70.70;;;10.60;nan;101896.84;4987396;28;21206;-68
2022/03/26 06:10:13;;;;;;;27.80;10.80;;;10.90;68.70;;;11.17;nan;101899.91;4990516;28;20688;-72
2022/03/26 06:12:43;;;;;;;21.07;10.97;;;11.40;67.30;;;11.35;nan;101897.09;4988649;28;20627;-71
2022/03/26 06:15:10;;;;;;;20.00;9.70;;;11.60;65.40;;;11.77;nan;101901.75;4973558;28;20630;-71
2022/03/26 06:17:56;;;;;;;18.70;9.63;;;12.10;63.70;;;12.16;nan;101902.06;4975283;28;20615;-72
2022/03/26 06:20:23;;;;;;;14.63;8.30;;;12.50;61.90;;;12.82;nan;101909.47;4990331;28;20670;-71
2022/03/26 06:22:50;;;;;;;22.10;11.23;;;13.20;60.10;;;13.22;nan;101909.53;4992641;28;21000;-71
2022/03/26 06:25:17;;;;;;;24.37;12.80;;;13.60;58.70;;;13.59;nan;101913.28;4990625;28;20653;-72
2022/03/26 06:27:47;;;;;;;21.63;10.60;;;14.10;57.00;;;13.97;nan;101919.50;4992981;28;20477;-72
2022/03/26 06:30:15;;;;;;;22.23;9.47;;;14.40;55.80;;;13.98;nan;101915.09;4990307;28;20685;-75
2022/03/26 06:32:42;;;;;;;18.30;9.97;;;14.50;55.30;;;14.81;nan;101913.84;4991625;28;20629;-71
2022/03/26 06:35:10;;;;;;;25.33;10.43;;;15.30;54.30;;;14.84;nan;101922.38;4991174;28;21221;-73
2022/03/26 06:37:37;;;;;;;26.07;11.10;;;15.70;53.10;;;15.53;nan;101922.66;4991817;28;21562;-73
2022/03/26 06:40:05;;;;;;;21.80;10.47;;;16.30;52.00;;;16.44;nan;101920.28;4991067;28;20693;-73
2022/03/26 06:42:32;;;;;;;20.87;11.60;;;17.30;50.20;;;16.80;nan;101926.19;4992368;28;20637;-72
2022/03/26 06:44:59;;;;;;;21.50;10.73;;;18.00;48.80;;;17.37;nan;101923.44;4991956;28;20996;-71
2022/03/26 06:47:27;;;;;;;22.20;11.63;;;18.60;47.70;;;17.65;nan;101919.44;4993330;28;20622;-71
2022/03/26 06:49:55;;;;;;;27.30;13.53;;;19.00;46.50;;;18.14;nan;101929.44;4990468;28;21353;-71
2022/03/26 06:52:23;;;;;;;22.07;12.43;;;19.40;46.00;;;17.80;nan;101926.13;4984892;28;20635;-70
2022/03/26 06:54:51;;;;;;;22.70;11.30;;;19.30;46.00;;;18.25;nan;101930.22;4991587;28;20634;-71
2022/03/26 06:57:19;;;;;;;20.77;12.90;;;19.50;46.00;;;18.41;nan;101921.84;4990001;28;21197;-71
2022/03/26 06:59:47;;;;;;;19.13;11.07;;;19.90;45.40;;;19.02;nan;101926.22;4991004;28;20692;-72
2022/03/26 07:02:14;;;;;;;21.20;12.70;;;20.30;44.90;;;19.37;nan;101925.81;4986913;28;20647;-71
2022/03/26 07:04:41;;;;;;;24.43;12.40;;;20.70;44.40;;;19.79;nan;101927.25;4992872;28;20622;-71
2022/03/26 07:07:08;;;;;;;20.53;12.17;;;21.00;44.10;;;20.11;nan;101935.78;4975137;28;20700;-71
2022/03/26 07:09:36;;;;;;;24.40;11.80;;;21.40;43.70;;;20.71;nan;101939.88;4990715;28;20678;-67
2022/03/26 07:12:03;;;;;;;21.60;11.87;;;22.20;42.30;;;21.26;nan;101934.66;4992215;28;20623;-71
2022/03/26 07:14:30;;;;;;;22.83;12.10;;;22.70;41.70;;;20.88;nan;101936.47;4990698;28;20642;-71
2022/03/26 07:16:57;;;;;;;28.23;14.30;;;22.80;41.30;;;21.70;nan;101933.00;4992246;28;20635;-73
2022/03/26 07:19:24;;;;;;;24.20;14.50;;;23.30;40.80;;;22.04;nan;101936.69;4992248;28;20723;-72
2022/03/26 07:21:51;;;;;;;25.03;12.90;;;23.40;40.50;;;22.18;nan;101950.25;4990301;28;21223;-70
2022/03/26 07:24:18;;;;;;;22.43;13.30;;;23.40;40.20;;;22.17;nan;101945.91;4990438;28;20626;-72
2022/03/26 07:26:45;;;;;;;21.20;13.47;;;23.10;40.60;;;22.48;nan;101956.97;4971360;28;20642;-67
2022/03/26 07:29:12;;;;;;;24.37;13.57;;;23.60;40.00;;;22.87;nan;101944.91;4972111;28;20683;-72
2022/03/26 07:31:44;;;;;;;26.30;14.20;;;23.90;39.60;;;22.91;nan;101951.59;4972804;28;20624;-72
2022/03/26 07:34:13;;;;;;;26.23;15.40;;;23.90;39.60;;;23.60;nan;101948.72;4987841;28;21217;-73
2022/03/26 07:36:40;;;;;;;26.00;14.70;;;24.30;39.30;;;23.52;nan;101948.72;4991396;28;21194;-73
2022/03/26 07:39:07;;;;;;;24.87;14.30;;;24.30;39.00;;;23.54;nan;101949.41;4991309;28;20721;-72
2022/03/26 07:41:35;;;;;;;27.93;14.90;;;24.10;39.20;;;24.05;nan;101955.50;4989941;28;20630;-73
2022/03/26 07:44:02;;;;;;;25.90;15.30;;;24.50;38.60;;;23.91;nan;101951.63;4989564;28;20638;-73
2022/03/26 07:46:30;;;;;;;25.30;15.03;;;24.40;38.90;;;24.04;nan;101954.69;4999504;28;20628;-73
2022/03/26 07:48:57;;;;;;;25.20;13.90;;;24.60;38.60;;;24.62;nan;101962.44;4975155;28;21211;-71
2022/03/26 07:51:24;;;;;;;28.23;15.73;;;25.00;38.00;;;24.77;nan;101957.31;4981844;28;20634;-73
2022/03/26 07:53:51;;;;;;;26.57;13.90;;;25.20;38.10;;;24.79;nan;101963.31;4981665;28;20626;-72
2022/03/26 07:56:18;;;;;;;22.97;14.50;;;25.30;37.70;;;24.54;nan;101949.13;4979298;28;20723;-73
2022/03/26 07:58:47;;;;;;;31.80;15.30;;;25.20;37.80;;;23.83;nan;101949.78;4990294;28;20634;-72
2022/03/26 08:01:14;;;;;;;26.43;16.10;;;24.60;38.10;;;23.20;nan;101948.56;4988774;28;20646;-72
2022/03/26 08:03:41;;;;;;;25.23;15.03;;;23.90;38.60;;;23.00;nan;101953.31;4955034;28;20720;-73
2022/03/26 08:06:08;;;;;;;23.43;13.10;;;23.40;39.30;;;23.48;nan;101962.53;4988010;28;20872;-72
2022/03/26 08:08:35;;;;;;;28.10;14.40;;;23.50;39.50;;;23.70;nan;101959.25;4988034;28;20634;-74
2022/03/26 08:11:02;;;;;;;26.90;14.03;;;23.90;39.10;;;24.24;nan;101961.34;4992824;28;21065;-73
2022/03/26 08:13:29;;;;;;;25.97;15.73;;;24.40;38.70;;;24.23;nan;101958.84;4999102;28;20617;-71
2022/03/26 08:15:56;;;;;;;29.30;15.00;;;24.80;37.90;;;25.48;nan;101968.75;4990374;28;20638;-73
2022/03/26 08:18:23;;;;;;;28.07;15.70;;;25.40;37.70;;;26.41;nan;101978.28;4988574;28;20685;-72
2022/03/26 08:20:50;;;;;;;24.93;14.80;;;26.40;37.10;;;26.81;nan;101969.06;4989373;28;21236;-73
2022/03/26 08:23:17;;;;;;;26.03;15.67;;;26.90;36.50;;;26.98;nan;101975.91;4989763;28;20654;-73
2022/03/26 08:28:33;;;;;;;26.63;14.50;;;27.80;35.30;;;28.06;nan;101977.66;4989097;28;20653;-73
2022/03/26 08:31:00;;;;;;;23.70;14.20;;;28.30;34.90;;;28.56;nan;101990.03;4989780;28;20670;-73
2022/03/26 08:33:27;;;;;;;22.80;14.70;;;29.20;34.30;;;28.57;nan;101989.06;4989022;28;20673;-73
2022/03/26 08:35:55;;;;;;;25.43;15.53;;;29.60;33.90;;;28.83;nan;101977.66;4986818;28;20634;-73
2022/03/26 08:38:22;;;;;;;26.17;15.40;;;30.10;33.60;;;29.23;nan;101982.25;4990838;28;20630;-73
2022/03/26 08:40:49;;;;;;;22.87;14.83;;;30.30;33.40;;;30.25;nan;101991.84;4989471;28;20666;-73
2022/03/26 08:43:16;;;;;;;31.70;16.53;;;31.20;33.00;;;29.62;nan;101979.69;4989931;28;20642;-72
2022/03/26 08:45:43;;;;;;;24.13;16.43;;;31.10;32.80;;;30.51;nan;101988.34;4990292;28;21003;-73
2022/03/26 08:48:10;;;;;;;29.20;16.00;;;31.80;32.50;;;31.00;nan;101986.03;4991240;28;20634;-73
2022/03/26 08:50:37;;;;;;;21.73;15.73;;;32.30;32.20;;;31.49;nan;101990.84;4988678;28;21046;-68
2022/03/26 08:53:04;;;;;;;33.60;15.50;;;33.00;31.80;;;31.14;nan;101989.50;4987883;28;20638;-71
2022/03/26 08:55:31;;;;;;;30.43;17.80;;;33.00;31.60;;;30.95;nan;101993.06;4990520;28;21163;-72
2022/03/26 08:57:59;;;;;;;25.10;17.67;;;33.00;31.50;;;32.23;nan;101987.47;4992531;28;20622;-73
2022/03/26 09:00:27;;;;;;;27.33;16.30;;;34.10;31.00;;;32.77;nan;101990.34;4997754;28;20680;-73
2022/03/26 09:02:55;;;;;;;26.87;18.00;;;35.00;30.70;;;33.53;nan;101988.03;4992245;28;20630;-72
2022/03/26 09:05:23;;;;;;;24.77;15.90;;;36.10;30.00;;;33.63;nan;101997.25;4994648;28;20638;-73
2022/03/26 09:07:51;;;;;;;25.23;17.20;;;36.30;29.90;;;33.39;nan;101987.31;4994014;28;20648;-72
2022/03/26 09:10:18;;;;;;;28.60;17.77;;;36.90;29.50;;;33.38;nan;101985.69;4975512;28;20707;-73
2022/03/26 09:12:46;;;;;;;25.90;18.30;;;37.10;29.20;;;34.12;nan;101984.44;4978991;28;21213;-72
2022/03/26 09:15:14;;;;;;;23.87;17.60;;;37.60;29.10;;;33.91;nan;101984.97;4993242;28;20641;-73
2022/03/26 09:17:41;;;;;;;24.23;16.90;;;37.50;29.00;;;35.06;nan;101995.09;5002174;28;20638;-73
2022/03/26 09:20:09;;;;;;;26.47;17.73;;;38.10;29.10;;;35.48;nan;101993.81;4975455;28;20643;-67
2022/03/26 09:22:36;;;;;;;20.17;13.90;;;38.70;29.00;;;36.66;nan;101992.88;4974851;28;20622;-67
2022/03/26 09:25:06;;;;;;;28.80;17.67;;;39.60;28.60;;;35.44;nan;101995.34;4991054;28;20646;-68
2022/03/26 09:27:33;;;;;;;29.77;20.03;;;39.60;28.50;;;33.46;nan;101990.78;4991957;28;20719;-68
2022/03/26 09:30:01;;;;;;;24.73;16.27;;;38.10;28.60;;;35.79;nan;101987.91;4992588;28;20681;-67
2022/03/26 09:32:33;;;;;;;25.33;17.50;;;38.70;28.70;;;36.14;nan;101992.31;4994125;28;20634;-68
2022/03/26 09:35:00;;;;;;;26.07;17.50;;;39.80;28.50;;;36.91;nan;101993.28;4993454;28;20630;-67
2022/03/26 09:37:27;;;;;;;29.37;17.20;;;40.10;28.40;;;37.29;nan;101995.91;4989810;28;20651;-68
2022/03/26 09:39:54;;;;;;;25.40;17.87;;;40.80;28.10;;;37.34;nan;101987.81;4973104;28;20642;-68
2022/03/26 09:42:23;;;;;;;24.57;18.23;;;41.10;28.00;;;37.59;nan;101996.25;4988535;28;20646;-68
2022/03/26 09:44:50;;;;;;;23.30;17.33;;;41.10;27.90;;;37.96;nan;101991.75;4993783;28;20626;-67
2022/03/26 09:47:18;;;;;;;27.30;19.60;;;41.70;27.80;;;38.12;nan;101983.72;4992396;28;20641;-69
2022/03/26 09:49:45;;;;;;;25.20;17.43;;;41.70;27.60;;;37.40;nan;101992.25;4993047;28;20680;-69
2022/03/26 09:52:13;;;;;;;22.40;16.23;;;41.40;27.50;;;37.72;nan;101995.03;4993201;28;20634;-68
2022/03/26 09:54:40;;;;;;;28.17;19.20;;;41.20;27.40;;;37.94;nan;101990.38;5000217;28;20653;-68
2022/03/26 09:57:08;;;;;;;19.23;14.73;;;41.90;27.30;;;39.31;nan;101990.19;5000895;28;20995;-68
2022/03/26 09:59:36;;;;;;;25.07;16.93;;;42.30;27.30;;;38.61;nan;101999.63;5003726;28;21252;-63
2022/03/26 10:02:03;;;;;;;24.90;19.47;;;43.10;27.10;;;37.55;nan;101989.69;5002916;28;20625;-69
2022/03/26 10:04:39;;;;;;;21.00;15.53;;;42.30;27.00;;;37.13;nan;101986.75;5008062;28;20679;-69
2022/03/26 10:07:07;;;;;;;25.57;18.07;;;41.20;27.40;;;37.13;nan;101983.19;4996312;28;20680;-68
2022/03/26 10:09:44;;;;;;;29.00;18.93;;;40.70;27.40;;;37.28;nan;101977.94;4992458;28;20658;-67
2022/03/26 10:12:15;;;;;;;27.83;18.30;;;41.30;27.30;;;38.32;nan;101970.25;4991781;28;20637;-67
2022/03/26 10:14:52;;;;;;;30.40;17.70;;;41.70;27.30;;;38.52;nan;101970.38;4993007;28;21205;-66
2022/03/26 10:17:25;;;;;;;28.17;18.50;;;42.20;27.00;;;39.71;nan;101968.44;4992702;28;20642;-67
2022/03/26 10:19:57;;;;;;;28.10;17.27;;;42.70;27.10;;;39.00;nan;101975.56;4989858;28;20658;-66
2022/03/26 10:22:48;;;;;;;24.97;19.60;;;42.90;26.90;;;38.70;nan;101969.97;4992726;28;20692;-68
2022/03/26 10:25:22;;;;;;;20.70;15.47;;;42.20;27.00;;;38.27;nan;101970.22;4992162;28;20630;-66